• Join FlightAware (Why Join?)
  • Login
  • US Flag 
10:31PM EDT


 

Airport Tracker/Info


-or-


 

Live Flight TrackerFlight Track Log ✈ SKW5564 ✈ 28-Jun-2013 ✈ KGRR - KORD

Flight Track Log - Related Links

Times and Time Zones

All times are in EDT time to prevent confusion due to time zone crossing. See the SKW5564 flight status page for this flight to view local times or setup timezone preferences in your user account.

Time Position Orientation Groundspeed Altitude Reporting Facility
EDT Latitude Longitude Course Direction KTS MPH feet Rate Location/Type
10:28AM 42.8578 -85.6075 253° West 227 261 5,200  Level Chicago Center
10:29AM 42.7478 -85.8663 244° Southwest  Level FlightAware Approximate
10:29AM 42.7992 -85.6503 208° Southwest 236 272 8,500  Level Chicago Center
10:30AM 42.7168 -85.9530 244° Southwest  Level FlightAware Approximate
10:30AM 42.7347 -85.6992 209° Southwest 261 300 10,000  Level Chicago Center
10:31AM 42.6866 -86.0401 246° West  Level FlightAware Approximate
10:31AM 42.6606 -85.7536 208° Southwest 291 335 10,100  Level Chicago Center
10:32AM 42.6646 -86.1315 253° West  Level FlightAware Approximate
10:32AM 42.5861 -85.8078 208° Southwest 301 346 10,100  Level Chicago Center
10:33AM 42.6434 -86.2234 253° West  Level FlightAware Approximate
10:33AM 42.4983 -85.8697 207° Southwest 297 342 10,100  Level Chicago Center
10:34AM 42.4239 -85.9225 208° Southwest 300 345 10,100 -60 Level Chicago Center
10:35AM 42.3481 -85.9778 208° Southwest 307 353 10,000 -60 Descending Chicago Center
10:36AM 42.2678 -86.0378 209° Southwest 306 352 10,000  Level Chicago Center
10:37AM 42.2383 -86.1311 247° West 278 320 10,000  Level Chicago Center
10:38AM 42.2117 -86.2300 250° West 282 325 10,000 -120 Level Chicago Center
10:39AM 42.1722 -86.3231 240° Southwest 284 327 9,800 -660 Descending Chicago Center
10:40AM 42.1356 -86.4150 242° Southwest 282 325 8,700 -900 Descending Chicago Center
10:41AM 42.0956 -86.5172 242° Southwest 260 299 8,000 -360 Descending Chicago Center
10:42AM 42.0619 -86.6028 242° Southwest 258 297 8,000  Level Chicago Center
10:43AM 42.0292 -86.6894 243° Southwest 258 297 8,000  Level Chicago Center
10:44AM 41.9939 -86.7842 243° Southwest 248 285 8,000  Level Chicago Center
10:45AM 41.9839 -86.8775 262° West 250 288 8,000  Level Chicago Center
10:46AM 41.9839 -86.9764 270° West 262 302 8,000  Level Chicago Center
10:47AM 41.9825 -87.0722 269° West 259 298 8,000  Level Chicago Center
10:48AM 41.9831 -87.1672 270° West 257 296 8,000  Level Chicago Center
10:50AM 41.9831 -87.2814 270° West 256 295 8,000  Level Chicago Center
10:51AM 41.9828 -87.3764 270° West 256 295 8,000 -480 Level Chicago Center
10:52AM 41.9822 -87.4708 270° West 255 293 7,000 -1,140 Descending Chicago Center
10:53AM 41.9828 -87.5633 270° West 251 289 5,700 -1,260 Descending Chicago Center